createdAt,value
2022-12-16T00:00:46.457Z,34.60
2022-12-16T00:04:49.303Z,34.47
2022-12-16T00:08:53.646Z,35.53
2022-12-16T00:12:58.948Z,36.23
2022-12-16T00:17:01.727Z,33.17
2022-12-16T00:21:04.752Z,35.70
2022-12-16T00:25:08.419Z,35.07
2022-12-16T00:29:12.523Z,33.97
2022-12-16T00:33:15.254Z,32.97
2022-12-16T00:37:18.108Z,34.43
2022-12-16T00:41:20.887Z,35.07
2022-12-16T00:45:25.113Z,30.93
2022-12-16T00:49:28.025Z,34.80
2022-12-16T00:53:31.280Z,35.23
2022-12-16T00:57:34.245Z,32.53
2022-12-16T01:01:38.462Z,35.30
2022-12-16T01:05:41.365Z,34.97
2022-12-16T01:09:44.145Z,33.77
2022-12-16T01:13:47.914Z,32.67
2022-12-16T01:17:52.071Z,31.67
2022-12-16T01:21:54.814Z,39.03
2022-12-16T01:26:00.060Z,35.57
2022-12-16T01:30:02.914Z,33.90
2022-12-16T01:34:07.176Z,35.67
2022-12-16T01:38:09.906Z,38.30
2022-12-16T01:42:13.789Z,35.57
2022-12-16T01:46:23.232Z,35.83
2022-12-16T01:50:29.843Z,34.83
2022-12-16T01:54:37.147Z,36.87
2022-12-16T01:58:42.290Z,36.93
2022-12-16T02:02:47.799Z,32.77
2022-12-16T02:06:54.158Z,39.53
2022-12-16T02:11:14.821Z,36.53
2022-12-16T02:15:31.160Z,35.00
2022-12-16T02:20:06.408Z,35.83
2022-12-16T02:24:42.271Z,33.33
2022-12-16T02:29:09.233Z,40.47
2022-12-16T02:33:29.650Z,34.10
2022-12-16T02:37:39.144Z,35.33
2022-12-16T02:41:48.250Z,37.47
2022-12-16T02:45:51.747Z,37.40
2022-12-16T02:49:57.299Z,36.43
2022-12-16T02:54:00.049Z,36.87
2022-12-16T02:58:17.546Z,36.17
2022-12-16T03:02:26.269Z,35.07
2022-12-16T03:06:32.932Z,37.83
2022-12-16T03:10:39.783Z,40.67
2022-12-16T03:14:47.070Z,33.40
2022-12-16T03:18:54.940Z,38.73
2022-12-16T03:23:04.039Z,35.67
2022-12-16T03:27:12.678Z,34.90
2022-12-16T03:31:25.387Z,35.77
2022-12-16T03:35:33.324Z,41.20
2022-12-16T03:39:41.906Z,42.60
2022-12-16T03:43:45.047Z,39.13
2022-12-16T03:47:51.208Z,38.97
2022-12-16T03:51:55.286Z,36.80
2022-12-16T03:55:59.364Z,33.03
2022-12-16T04:00:02.147Z,37.87
2022-12-16T04:04:14.562Z,34.63
2022-12-16T04:08:17.322Z,33.30
2022-12-16T04:12:39.277Z,35.13
2022-12-16T04:16:59.973Z,37.30
2022-12-16T04:21:21.799Z,35.17
2022-12-16T04:25:27.831Z,40.37
2022-12-16T04:29:32.298Z,37.40
2022-12-16T04:33:52.987Z,34.77
2022-12-16T04:38:13.241Z,33.87
2022-12-16T04:42:33.322Z,36.53
2022-12-16T04:46:55.428Z,38.43
2022-12-16T04:51:15.799Z,32.87
2022-12-16T04:55:36.138Z,34.57
2022-12-16T04:59:56.560Z,35.23
2022-12-16T05:04:18.127Z,35.87
2022-12-16T05:08:38.442Z,34.63
2022-12-16T05:12:58.911Z,35.20
2022-12-16T05:17:19.320Z,37.57
2022-12-16T05:21:40.887Z,37.33
2022-12-16T05:26:01.215Z,34.13
2022-12-16T05:30:21.770Z,36.83
2022-12-16T05:34:42.177Z,36.90
2022-12-16T05:39:03.910Z,35.50
2022-12-16T05:43:24.295Z,40.97
2022-12-16T05:47:45.581Z,40.17
2022-12-16T05:52:06.081Z,42.43
2022-12-16T05:56:27.715Z,71.43
2022-12-16T06:00:48.206Z,38.80
2022-12-16T06:05:19.799Z,38.73
2022-12-16T06:09:40.475Z,36.00
2022-12-16T06:14:02.271Z,37.27
2022-12-16T06:18:22.809Z,38.47
2022-12-16T06:22:43.269Z,36.27
2022-12-16T06:27:03.371Z,33.20
2022-12-16T06:31:25.219Z,38.80
2022-12-16T06:35:45.321Z,38.87
2022-12-16T06:40:05.829Z,36.63
2022-12-16T06:44:26.207Z,39.23
2022-12-16T06:48:47.875Z,41.20
2022-12-16T06:53:08.196Z,39.67
2022-12-16T06:57:29.090Z,39.07
2022-12-16T07:01:49.710Z,35.97
2022-12-16T07:06:13.366Z,37.00
2022-12-16T07:10:33.662Z,37.87
2022-12-16T07:14:53.718Z,36.80
2022-12-16T07:19:14.061Z,36.40
2022-12-16T07:23:36.206Z,41.20
2022-12-16T07:27:56.757Z,42.23
2022-12-16T07:32:17.153Z,41.47
2022-12-16T07:36:37.534Z,39.00
2022-12-16T07:40:55.674Z,40.30
2022-12-16T07:45:16.030Z,35.43
2022-12-16T07:49:36.188Z,36.43
2022-12-16T07:53:56.578Z,40.33
2022-12-16T07:58:23.654Z,42.93
2022-12-16T08:02:44.367Z,38.60
2022-12-16T08:07:05.113Z,41.70
2022-12-16T08:11:25.450Z,42.27
2022-12-16T08:15:46.972Z,46.10
2022-12-16T08:20:03.590Z,52.87
2022-12-16T08:24:24.108Z,46.83
2022-12-16T08:28:45.139Z,49.70
2022-12-16T08:33:16.637Z,55.70
2022-12-16T08:37:39.342Z,52.07
2022-12-16T08:41:59.704Z,54.07
2022-12-16T08:46:20.149Z,44.07
2022-12-16T08:50:41.674Z,49.87
2022-12-16T08:55:02.018Z,49.47
2022-12-16T08:59:22.997Z,51.13
2022-12-16T09:03:43.572Z,50.03
2022-12-16T09:08:05.108Z,56.30
2022-12-16T09:12:25.520Z,48.10
2022-12-16T09:16:45.852Z,58.70
2022-12-16T09:21:06.272Z,59.07
2022-12-16T09:25:28.108Z,59.73
2022-12-16T09:29:48.345Z,55.07
2022-12-16T09:34:09.028Z,47.93
2022-12-16T09:38:29.152Z,41.13
2022-12-16T09:43:01.635Z,42.97
2022-12-16T09:47:28.904Z,43.07
2022-12-16T09:51:50.336Z,42.93
2022-12-16T09:56:11.825Z,50.47
2022-12-16T10:00:40.307Z,47.93
2022-12-16T10:05:10.436Z,55.53
2022-12-16T10:09:40.056Z,53.47
2022-12-16T10:14:07.478Z,54.97
2022-12-16T10:18:43.601Z,55.07
2022-12-16T10:23:12.309Z,50.20
2022-12-16T10:27:34.466Z,57.00
2022-12-16T10:31:56.270Z,54.77
2022-12-16T10:36:18.175Z,56.57
2022-12-16T10:40:42.801Z,61.23
2022-12-16T10:45:09.210Z,58.10
2022-12-16T10:49:33.837Z,63.67
2022-12-16T10:53:58.387Z,68.20
2022-12-16T10:58:34.216Z,70.50
2022-12-16T11:02:56.026Z,60.53
2022-12-16T11:07:16.842Z,64.27
2022-12-16T11:11:43.934Z,60.33
2022-12-16T11:16:04.149Z,56.63
2022-12-16T11:20:29.854Z,61.53
2022-12-16T11:24:50.762Z,59.97
2022-12-16T11:29:28.496Z,57.23
2022-12-16T11:33:52.396Z,64.03
2022-12-16T11:38:15.066Z,58.70
2022-12-16T11:42:39.963Z,59.57
2022-12-16T11:47:01.721Z,55.73
2022-12-16T11:51:23.909Z,61.90
2022-12-16T11:56:11.242Z,54.33
2022-12-16T12:00:35.474Z,58.93
2022-12-16T12:04:53.826Z,61.47
2022-12-16T12:09:19.471Z,60.43
2022-12-16T12:13:57.224Z,58.10
2022-12-16T12:18:23.633Z,57.93
2022-12-16T12:22:53.283Z,58.87
2022-12-16T12:27:23.799Z,55.33
2022-12-16T12:31:55.061Z,53.63
2022-12-16T12:36:23.050Z,52.10
2022-12-16T12:40:56.756Z,53.17
2022-12-16T12:45:35.481Z,54.50
2022-12-16T12:50:02.051Z,52.83
2022-12-16T12:54:34.097Z,50.47
2022-12-16T12:58:57.683Z,51.23
2022-12-16T13:03:36.130Z,49.97
2022-12-16T13:07:56.705Z,52.80
2022-12-16T13:12:40.013Z,48.07
2022-12-16T13:17:26.095Z,50.60
2022-12-16T13:22:05.105Z,51.40
2022-12-16T13:26:25.497Z,52.20
2022-12-16T13:30:47.412Z,49.90
2022-12-16T13:35:20.779Z,52.10
2022-12-16T13:39:43.493Z,53.27
2022-12-16T13:44:07.844Z,51.10
2022-12-16T13:49:00.684Z,59.07
2022-12-16T13:53:24.953Z,49.07
2022-12-16T13:57:48.970Z,56.83
2022-12-16T14:02:12.477Z,55.40
2022-12-16T14:06:41.441Z,50.57
2022-12-16T14:11:03.031Z,52.57
2022-12-16T14:15:29.783Z,49.93
2022-12-16T14:20:00.266Z,48.90
2022-12-16T14:24:27.927Z,50.87
2022-12-16T14:28:54.354Z,49.73
2022-12-16T14:33:15.067Z,53.17
2022-12-16T14:37:36.914Z,46.83
2022-12-16T14:41:57.158Z,48.77
2022-12-16T14:46:19.095Z,55.37
2022-12-16T14:50:44.049Z,47.13
2022-12-16T14:55:04.682Z,55.07
2022-12-16T14:59:31.735Z,50.33
2022-12-16T15:03:57.509Z,55.17
2022-12-16T15:08:18.871Z,50.63
2022-12-16T15:12:42.521Z,51.10
2022-12-16T15:17:04.363Z,52.53
2022-12-16T15:21:27.117Z,49.07
2022-12-16T15:25:47.520Z,49.83
2022-12-16T15:30:07.777Z,52.10
2022-12-16T15:34:44.368Z,55.17
2022-12-16T15:39:06.342Z,49.03
2022-12-16T15:43:40.079Z,49.93
2022-12-16T15:48:00.348Z,47.43
2022-12-16T15:52:20.921Z,48.03
2022-12-16T15:56:45.327Z,49.73
2022-12-16T16:01:16.030Z,46.00
2022-12-16T16:05:39.016Z,50.63
2022-12-16T16:09:59.206Z,49.80
2022-12-16T16:14:21.045Z,53.73
2022-12-16T16:18:41.162Z,47.17
2022-12-16T16:23:01.513Z,47.27
2022-12-16T16:27:24.929Z,45.77
2022-12-16T16:31:46.895Z,49.60
2022-12-16T16:36:07.267Z,52.30
2022-12-16T16:40:36.861Z,51.83
2022-12-16T16:44:57.257Z,56.00
2022-12-16T16:49:19.284Z,55.83
2022-12-16T16:53:39.573Z,58.43
2022-12-16T16:57:59.866Z,54.77
2022-12-16T17:02:20.362Z,66.63
2022-12-16T17:06:42.064Z,56.73
2022-12-16T17:11:02.625Z,57.17
2022-12-16T17:15:37.263Z,53.60
2022-12-16T17:19:57.660Z,62.03
2022-12-16T17:24:19.546Z,55.67
2022-12-16T17:28:39.823Z,53.73
2022-12-16T17:33:00.251Z,52.50
2022-12-16T17:37:20.637Z,51.10
2022-12-16T17:41:42.772Z,59.37
2022-12-16T17:46:14.450Z,52.63
2022-12-16T17:50:35.051Z,56.70
2022-12-16T17:54:55.442Z,60.63
2022-12-16T17:59:18.164Z,51.93
2022-12-16T18:03:39.397Z,53.83
2022-12-16T18:07:59.858Z,53.87
2022-12-16T18:12:20.096Z,50.83
2022-12-16T18:16:41.821Z,54.97
2022-12-16T18:21:02.395Z,48.03
2022-12-16T18:25:23.104Z,52.93
2022-12-16T18:29:43.351Z,51.37
2022-12-16T18:34:04.908Z,54.57
2022-12-16T18:38:21.811Z,57.57
2022-12-16T18:42:42.073Z,56.63
2022-12-16T18:47:04.232Z,67.40
2022-12-16T18:51:26.646Z,59.97
2022-12-16T18:55:47.205Z,69.73
2022-12-16T19:00:07.386Z,65.47
2022-12-16T19:04:27.605Z,63.60
2022-12-16T19:08:49.198Z,71.93
2022-12-16T19:13:14.376Z,76.27
2022-12-16T19:17:35.942Z,61.83
2022-12-16T19:26:37.680Z,69.30
2022-12-16T19:30:58.330Z,79.13
2022-12-16T19:35:33.723Z,71.03
2022-12-16T19:39:56.763Z,78.83
2022-12-16T19:44:23.065Z,71.23
2022-12-16T19:48:43.810Z,70.50
2022-12-16T19:53:05.208Z,73.47
2022-12-16T19:57:26.053Z,69.73
2022-12-16T20:01:48.576Z,75.80
2022-12-16T20:06:18.411Z,69.20
2022-12-16T20:10:39.137Z,63.97
2022-12-16T20:14:59.971Z,67.97
2022-12-16T20:19:22.192Z,80.70
2022-12-16T20:23:42.493Z,74.77
2022-12-16T20:28:02.909Z,76.43
2022-12-16T20:32:23.777Z,81.90
2022-12-16T20:36:45.636Z,78.90
2022-12-16T20:41:14.150Z,79.53
2022-12-16T20:45:34.800Z,70.87
2022-12-16T20:49:56.067Z,80.40
2022-12-16T20:54:17.933Z,76.97
2022-12-16T20:58:39.254Z,64.90
2022-12-16T21:02:59.526Z,69.90
2022-12-16T21:07:20.956Z,64.33
2022-12-16T21:11:43.050Z,66.13
2022-12-16T21:16:03.860Z,68.07
2022-12-16T21:20:21.932Z,67.63
2022-12-16T21:24:42.806Z,67.20
2022-12-16T21:29:05.176Z,73.67
2022-12-16T21:33:35.295Z,78.30
2022-12-16T21:37:55.830Z,66.10
2022-12-16T21:42:16.595Z,75.37
2022-12-16T21:46:38.212Z,63.67
2022-12-16T21:50:59.064Z,64.77
2022-12-16T21:55:19.334Z,77.10
2022-12-16T21:59:40.181Z,62.57
2022-12-16T22:04:13.924Z,75.47
2022-12-16T22:08:36.249Z,71.80
2022-12-16T22:12:56.391Z,72.23
2022-12-16T22:17:17.086Z,98.77
2022-12-16T22:21:38.590Z,68.37
2022-12-16T22:25:58.792Z,66.20
2022-12-16T22:30:19.271Z,76.37
2022-12-16T22:34:39.407Z,74.70
2022-12-16T22:39:01.135Z,80.87
2022-12-16T22:43:21.941Z,68.37
2022-12-16T22:47:42.381Z,67.20
2022-12-16T22:52:02.850Z,69.30
2022-12-16T22:56:36.542Z,78.23
2022-12-16T23:00:57.128Z,64.17
2022-12-16T23:05:21.076Z,64.07
2022-12-16T23:09:43.988Z,62.23
2022-12-16T23:14:05.803Z,74.43
2022-12-16T23:18:26.034Z,70.63
2022-12-16T23:22:46.531Z,79.77
2022-12-16T23:27:06.997Z,72.87
2022-12-16T23:31:28.971Z,72.53
2022-12-16T23:35:49.023Z,73.87
2022-12-16T23:40:09.181Z,78.67
2022-12-16T23:44:29.922Z,71.97
2022-12-16T23:48:56.559Z,69.47
2022-12-16T23:53:23.210Z,72.40
2022-12-16T23:57:43.561Z,70.00
